ADDS METAR Data INFO
IDs: Format: Raw Decoded Include TAF

Data at: 1000 UTC 22 May 2018

KMFE 220953Z AUTO 12007KT 10SM CLR 25/24 A2988 RMK AO2 SLP116 T02500239
KMFE 220853Z AUTO 12010KT 10SM OVC085 26/24 A2988 RMK AO2 SLP116 T02560239 58011
KMFE 220753Z AUTO 12008KT 10SM OVC085 26/24 A2989 RMK AO2 SLP121 T02560239
KMFE 220653Z AUTO 12006KT 10SM BKN075 25/23 A2991 RMK AO2 SLP126 T02500233
KMFE 220553Z AUTO 13006KT 10SM CLR 25/23 A2991 RMK AO2 SLP127 T02500233 10322 20250 403390228 51005
KMFE 220453Z 13007KT 10SM CLR 26/22 A2991 RMK AO2 SLP127 T02560222
KMFE 220353Z 13009KT 10SM CLR 26/22 A2991 RMK AO2 SLP125 T02610222
KMFE 220253Z 13008KT 10SM CLR 28/22 A2990 RMK AO2 SLP123 T02780222 53008
KMFE 220153Z 13009KT 10SM CLR 29/22 A2989 RMK AO2 SLP118 T02890217
KMFE 220053Z 13012KT 10SM CLR 31/22 A2987 RMK AO2 SLP114 T03060217
KMFE 212353Z 15011KT 10SM CLR 32/20 A2988 RMK AO2 SLP115 T03170200 10339 20311 55006
KMFE 212253Z 13010KT 10SM FEW050 33/20 A2987 RMK AO2 SLP113 T03280200
KMFE 212153Z 13015G20KT 10SM FEW049 33/21 A2988 RMK AO2 SLP116 T03280206
KMFE 212053Z 14008G17KT 10SM CLR 33/19 A2989 RMK AO2 SLP120 T03330194 58019
KMFE 211953Z 13007KT 10SM CLR 33/19 A2992 RMK AO2 SLP130 T03330194
KMFE 211853Z VRB03KT 10SM CLR 33/19 A2993 RMK AO2 SLP134 T03280194
KMFE 211753Z 00000KT 10SM CLR 31/18 A2995 RMK AO2 SLP139 T03110183 10317 20233 58004
KMFE 211653Z VRB04KT 10SM CLR 30/21 A2995 RMK AO2 SLP142 T03000206
KMFE 211553Z VRB04KT 10SM CLR 28/21 A2997 RMK AO2 SLP147 T02830206
KMFE 211453Z 30007KT 10SM FEW049 27/21 A2996 RMK AO2 SLP144 T02670211 51073
KMFE 211353Z 30008KT 10SM CLR 24/21 A2996 RMK AO2 SLP142 T02440211
KMFE 211253Z 24004KT 10SM FEW043 BKN055 24/19 A2993 RMK AO2 PK WND 11030/1155 WSHFT 1151 SLP134 T02390189
KMFE 211205Z 26011G29KT 10SM CLR 23/20 A2986 RMK AO2 PK WND 11030/1155 WSHFT 1151 PRESRR T02330200
KMFE 211153Z 12020G27KT 10SM FEW110 23/19 A2974 RMK AO2 PK WND 11031/1132 RAE52 PRESFR SLP070 P0001 60054 70055 T02330194 10283 20228 58078
KMFE 211053Z 11009KT 10SM -RA CLR 23/21 A2992 RMK AO2 LTG DSNT E-S TSB05E20B35E50 SLP128 P0009 T02280211
KMFE 211041Z AUTO 12011KT 10SM -TSRA FEW013 SCT110 23/22 A2991 RMK AO2 LTG DSNT ALQDS TSB05E20B35 P0008 T02280217
KMFE 211031Z AUTO 10019KT 10SM -RA SCT013 BKN080 BKN110 23/22 A2989 RMK AO2 LTG DSNT ALQDS TSB05E20 PRESFR P0007 T02330217
KMFE 211026Z AUTO 09015G19KT 10SM VCTS -RA BKN013 BKN022 BKN110 23/22 A2993 RMK AO2 LTG DSNT ALQDS TSB05E20 PRESFR P0006 T02330217
KMFE 211019Z AUTO 09004KT 8SM TSRA BKN013 BKN019 OVC110 23/22 A2996 RMK AO2 LTG DSNT ALQDS TSB05 P0006 T02330217
KMFE 211005Z AUTO 11006KT 5SM TSRA BR SCT011 BKN020 OVC110 24/22 A2996 RMK AO2 LTG DSNT NE-S TSB05 P0004 T02390217
KMFE 211002Z AUTO 11006KT 5SM VCTS +RA BR BKN013 OVC020 24/22 A2997 RMK AO2 LTG DSNT NE-S P0003 T02390217
KMFE 210953Z AUTO VRB05KT 5SM RA BR BKN011 BKN016 OVC100 24/22 A2998 RMK AO2 LTG DSNT ALQDS TSE05B23E38 SLP150 P0013 T02390217
KMFE 210949Z AUTO VRB06KT 5SM RA BR BKN011 BKN019 OVC100 24/22 A2997 RMK AO2 LTG DSNT ALQDS TSE05B23E38 P0012
KMFE 210939Z AUTO VRB04KT 5SM VCTS RA BR BKN011 BKN090 OVC110 24/22 A2997 RMK AO2 LTG DSNT ALQDS TSE05B23E38 P0008 T02390222
KMFE 210929Z AUTO VRB03G16KT 8SM TSRA BKN100 BKN120 23/22 A2995 RMK AO2 LTG DSNT ALQDS TSE05B23 PRESRR P0005 T02330222
KMFE 210911Z AUTO 09018KT 7SM VCTS RA BKN100 OVC120 23/22 A2991 RMK AO2 LTG DSNT ALQDS TSE05 PRESFR P0002 T02330217
KMFE 210853Z AUTO 00000KT 5SM -TSRA BR SCT018 BKN100 OVC110 23/22 A2997 RMK AO2 LTG DSNT ALQDS TSE17B22E49B50 PRESFR SLP145 P0016 60031 T02280217 50010
KMFE 210849Z AUTO 21003KT 5SM VCTS RA BR SCT018 BKN100 OVC110 23/21 A2998 RMK AO2 LTG DSNT ALQDS TSE17B22E49 P0016
KMFE 210828Z AUTO 28004KT 4SM TSRA BR OVC018 23/22 A2999 RMK AO2 LTG DSNT ALQDS TSE17B22 P0013 T02280217
KMFE 210817Z AUTO 31005KT 3SM VCTS RA BR SCT014 OVC021 24/22 A2999 RMK AO2 LTG DSNT ALQDS TSE17 PRESRR P0010 T02390217
KMFE 210812Z AUTO 31005KT 2 1/2SM +TSRA BR BKN014 OVC021 24/22 A2998 RMK AO2 LTG DSNT ALQDS P0009 T02390217
KMFE 210753Z AUTO 17006KT 6SM TSRA BR SCT013 OVC021 23/22 A2998 RMK AO2 LTG DSNT ALQDS TSB0654 SLP148 P0012 T02280217
KMFE 210700Z AUTO 05012KT 9SM TSRA OVC019 23/21 A2993 RMK AO2 LTG DSNT ALQDS TSB0654 PRESFR P0001 T02280206
KMFE 210653Z AUTO 04011G18KT 10SM VCTS -RA OVC017 23/21 A2994 RMK AO2 LTG DSNT ALQDS RAB0557 SLP136 P0003 T02330206
KMFE 210629Z AUTO 04012G25KT 9SM VCTS -RA BKN016 BKN095 BKN110 24/22 A2995 RMK AO2 LTG DSNT ALQDS RAB0557 P0001 T02390217
KMFE 210607Z AUTO 08013KT 10SM VCTS -RA FEW014 BKN090 OVC110 28/26 A2994 RMK AO2 LTG DSNT ALQDS RAB0557 P0000 T02780256
KMFE 210553Z AUTO 10011KT 10SM FEW014 OVC090 28/25 A2993 RMK AO2 LTG DSNT S-NW SLP135 T02830250 10328 20283 403560267 50005
KMFE 210509Z AUTO 10012G21KT 10SM FEW015 28/25 A2993 RMK AO2 LTG DSNT W T02830250
KMFE 210500Z AUTO 10014G21KT 10SM SCT016 BKN027 28/25 A2994 RMK AO2 LTG DSNT W T02830250
KMFE 210453Z AUTO 10015G21KT 10SM SCT016 SCT027 BKN110 28/25 A2995 RMK AO2 LTG DSNT W SLP139 T02830250
KMFE 210451Z 10015G20KT 10SM FEW016 SCT027 BKN110 28/25 A2995 RMK AO2 LTG DSNT W
KMFE 210444Z 09015G19KT 10SM FEW016 BKN028 BKN110 28/25 A2994 RMK AO2 T02830250
KMFE 210353Z 10012KT 10SM FEW019 SCT025 OVC100 29/25 A2992 RMK AO2 SLP129 T02890250
KMFE 210330Z 10013KT 10SM BKN018 BKN027 29/25 A2991 RMK AO2 T02890250
KMFE 210253Z 12015KT 10SM FEW100 29/25 A2990 RMK AO2 SLP124 T02940250 53022
KMFE 210153Z 12013KT 10SM BKN095 30/24 A2988 RMK AO2 SLP117 T03000239
KMFE 210053Z 13012KT 10SM CLR 31/23 A2985 RMK AO2 SLP106 T03110233
KMFE 202353Z 12015KT 10SM BKN085 33/23 A2984 RMK AO2 SLP103 T03280228 10356 20322 55000
KMFE 202253Z 12015KT 10SM FEW044 34/22 A2983 RMK AO2 SLP098 T03440222